sensor_id;sensor_type;location;lat;lon;timestamp;P1;durP1;ratioP1;P2;durP2;ratioP2
20832;SDS011;56075;51.264;7.150;2023-06-26T00:02:27;7.95;;;4.78;;
20832;SDS011;56075;51.264;7.150;2023-06-26T00:04:58;9.32;;;5.70;;
20832;SDS011;56075;51.264;7.150;2023-06-26T00:07:33;8.27;;;5.07;;
20832;SDS011;56075;51.264;7.150;2023-06-26T00:10:07;11.60;;;5.30;;
20832;SDS011;56075;51.264;7.150;2023-06-26T00:12:38;8.13;;;4.88;;
20832;SDS011;56075;51.264;7.150;2023-06-26T00:15:09;8.75;;;5.45;;
20832;SDS011;56075;51.264;7.150;2023-06-26T00:17:40;9.95;;;5.18;;
20832;SDS011;56075;51.264;7.150;2023-06-26T00:20:11;7.88;;;4.90;;
20832;SDS011;56075;51.264;7.150;2023-06-26T00:22:45;8.55;;;4.90;;
20832;SDS011;56075;51.264;7.150;2023-06-26T00:25:16;7.88;;;4.97;;
20832;SDS011;56075;51.264;7.150;2023-06-26T00:27:48;8.68;;;5.03;;
20832;SDS011;56075;51.264;7.150;2023-06-26T00:30:19;10.13;;;5.40;;
20832;SDS011;56075;51.264;7.150;2023-06-26T00:32:50;7.55;;;5.00;;
20832;SDS011;56075;51.264;7.150;2023-06-26T00:35:21;8.85;;;5.10;;
20832;SDS011;56075;51.264;7.150;2023-06-26T00:37:52;7.50;;;5.18;;
20832;SDS011;56075;51.264;7.150;2023-06-26T00:40:24;7.53;;;5.05;;
20832;SDS011;56075;51.264;7.150;2023-06-26T00:42:57;8.30;;;5.13;;
20832;SDS011;56075;51.264;7.150;2023-06-26T00:45:28;7.82;;;5.10;;
20832;SDS011;56075;51.264;7.150;2023-06-26T00:48:01;8.98;;;5.00;;
20832;SDS011;56075;51.264;7.150;2023-06-26T00:50:33;12.13;;;5.30;;
20832;SDS011;56075;51.264;7.150;2023-06-26T00:53:05;9.95;;;4.93;;
20832;SDS011;56075;51.264;7.150;2023-06-26T00:55:36;8.48;;;5.20;;
20832;SDS011;56075;51.264;7.150;2023-06-26T00:58:07;10.45;;;5.38;;
20832;SDS011;56075;51.264;7.150;2023-06-26T01:00:39;8.15;;;4.93;;
20832;SDS011;56075;51.264;7.150;2023-06-26T01:03:11;8.45;;;5.10;;
20832;SDS011;56075;51.264;7.150;2023-06-26T01:05:42;12.32;;;5.07;;
20832;SDS011;56075;51.264;7.150;2023-06-26T01:08:16;8.57;;;5.43;;
20832;SDS011;56075;51.264;7.150;2023-06-26T01:10:49;8.60;;;4.75;;
20832;SDS011;56075;51.264;7.150;2023-06-26T01:13:20;8.93;;;5.07;;
20832;SDS011;56075;51.264;7.150;2023-06-26T01:15:53;7.75;;;5.38;;
20832;SDS011;56075;51.264;7.150;2023-06-26T01:18:25;8.68;;;5.20;;
20832;SDS011;56075;51.264;7.150;2023-06-26T01:20:57;9.00;;;4.93;;
20832;SDS011;56075;51.264;7.150;2023-06-26T01:23:35;6.90;;;4.85;;
20832;SDS011;56075;51.264;7.150;2023-06-26T01:26:29;6.88;;;4.80;;
20832;SDS011;56075;51.264;7.150;2023-06-26T01:29:02;8.80;;;4.85;;
20832;SDS011;56075;51.264;7.150;2023-06-26T01:31:35;8.75;;;4.72;;
20832;SDS011;56075;51.264;7.150;2023-06-26T01:34:07;9.18;;;5.07;;
20832;SDS011;56075;51.264;7.150;2023-06-26T01:36:38;7.30;;;5.10;;
20832;SDS011;56075;51.264;7.150;2023-06-26T01:39:10;12.20;;;5.15;;
20832;SDS011;56075;51.264;7.150;2023-06-26T01:41:41;7.20;;;5.03;;
20832;SDS011;56075;51.264;7.150;2023-06-26T01:44:17;8.00;;;5.13;;
20832;SDS011;56075;51.264;7.150;2023-06-26T01:47:03;8.48;;;5.10;;
20832;SDS011;56075;51.264;7.150;2023-06-26T01:49:43;8.25;;;5.00;;
20832;SDS011;56075;51.264;7.150;2023-06-26T01:52:39;11.20;;;5.80;;
20832;SDS011;56075;51.264;7.150;2023-06-26T01:55:17;8.68;;;5.32;;
20832;SDS011;56075;51.264;7.150;2023-06-26T01:57:56;10.02;;;5.80;;
20832;SDS011;56075;51.264;7.150;2023-06-26T02:00:28;8.23;;;5.15;;
20832;SDS011;56075;51.264;7.150;2023-06-26T02:03:00;8.13;;;5.15;;
20832;SDS011;56075;51.264;7.150;2023-06-26T02:05:31;8.40;;;4.85;;
20832;SDS011;56075;51.264;7.150;2023-06-26T02:08:04;8.23;;;5.20;;
20832;SDS011;56075;51.264;7.150;2023-06-26T02:10:36;9.00;;;5.53;;
20832;SDS011;56075;51.264;7.150;2023-06-26T02:13:07;9.38;;;4.97;;
20832;SDS011;56075;51.264;7.150;2023-06-26T02:15:39;9.65;;;5.78;;
20832;SDS011;56075;51.264;7.150;2023-06-26T02:18:10;8.07;;;5.22;;
20832;SDS011;56075;51.264;7.150;2023-06-26T02:20:41;9.13;;;5.13;;
20832;SDS011;56075;51.264;7.150;2023-06-26T02:23:14;8.90;;;4.90;;
20832;SDS011;56075;51.264;7.150;2023-06-26T02:25:45;8.38;;;5.45;;
20832;SDS011;56075;51.264;7.150;2023-06-26T02:28:17;8.90;;;5.50;;
20832;SDS011;56075;51.264;7.150;2023-06-26T02:30:49;8.88;;;5.32;;
20832;SDS011;56075;51.264;7.150;2023-06-26T02:33:20;7.97;;;5.32;;
20832;SDS011;56075;51.264;7.150;2023-06-26T02:35:53;7.47;;;4.93;;
20832;SDS011;56075;51.264;7.150;2023-06-26T02:38:24;9.05;;;5.60;;
20832;SDS011;56075;51.264;7.150;2023-06-26T02:40:55;9.05;;;5.38;;
20832;SDS011;56075;51.264;7.150;2023-06-26T02:43:26;9.85;;;5.13;;
20832;SDS011;56075;51.264;7.150;2023-06-26T02:45:57;7.85;;;5.35;;
20832;SDS011;56075;51.264;7.150;2023-06-26T02:48:29;8.88;;;5.35;;
20832;SDS011;56075;51.264;7.150;2023-06-26T02:51:00;9.20;;;5.13;;
20832;SDS011;56075;51.264;7.150;2023-06-26T02:53:34;9.68;;;5.57;;
20832;SDS011;56075;51.264;7.150;2023-06-26T02:56:05;11.52;;;5.82;;
20832;SDS011;56075;51.264;7.150;2023-06-26T02:58:37;9.88;;;5.65;;
20832;SDS011;56075;51.264;7.150;2023-06-26T03:01:08;9.20;;;5.32;;
20832;SDS011;56075;51.264;7.150;2023-06-26T03:03:40;10.70;;;5.40;;
20832;SDS011;56075;51.264;7.150;2023-06-26T03:06:15;9.80;;;5.68;;
20832;SDS011;56075;51.264;7.150;2023-06-26T03:08:47;12.15;;;5.25;;
20832;SDS011;56075;51.264;7.150;2023-06-26T03:11:19;9.93;;;5.55;;
20832;SDS011;56075;51.264;7.150;2023-06-26T03:13:51;8.85;;;5.38;;
20832;SDS011;56075;51.264;7.150;2023-06-26T03:16:22;9.25;;;5.25;;
20832;SDS011;56075;51.264;7.150;2023-06-26T03:18:54;8.60;;;4.82;;
20832;SDS011;56075;51.264;7.150;2023-06-26T03:21:25;7.45;;;4.50;;
20832;SDS011;56075;51.264;7.150;2023-06-26T03:23:56;8.57;;;5.15;;
20832;SDS011;56075;51.264;7.150;2023-06-26T03:26:27;8.48;;;4.80;;
20832;SDS011;56075;51.264;7.150;2023-06-26T03:28:59;8.98;;;4.95;;
20832;SDS011;56075;51.264;7.150;2023-06-26T03:31:31;8.98;;;5.13;;
20832;SDS011;56075;51.264;7.150;2023-06-26T03:34:02;7.32;;;4.82;;
20832;SDS011;56075;51.264;7.150;2023-06-26T03:36:34;10.60;;;4.57;;
20832;SDS011;56075;51.264;7.150;2023-06-26T03:39:07;7.75;;;4.68;;
20832;SDS011;56075;51.264;7.150;2023-06-26T03:41:38;8.07;;;4.95;;
20832;SDS011;56075;51.264;7.150;2023-06-26T03:44:09;8.98;;;4.93;;
20832;SDS011;56075;51.264;7.150;2023-06-26T03:46:49;8.80;;;5.47;;
20832;SDS011;56075;51.264;7.150;2023-06-26T03:49:21;7.78;;;4.85;;
20832;SDS011;56075;51.264;7.150;2023-06-26T03:51:52;7.30;;;4.88;;
20832;SDS011;56075;51.264;7.150;2023-06-26T03:54:23;9.30;;;5.65;;
20832;SDS011;56075;51.264;7.150;2023-06-26T03:56:55;8.70;;;5.00;;
20832;SDS011;56075;51.264;7.150;2023-06-26T03:59:26;9.60;;;5.35;;
20832;SDS011;56075;51.264;7.150;2023-06-26T04:01:57;11.50;;;5.78;;
20832;SDS011;56075;51.264;7.150;2023-06-26T04:04:29;10.05;;;5.45;;
20832;SDS011;56075;51.264;7.150;2023-06-26T04:07:00;9.13;;;5.47;;
20832;SDS011;56075;51.264;7.150;2023-06-26T04:09:31;7.95;;;5.30;;
20832;SDS011;56075;51.264;7.150;2023-06-26T04:12:03;8.93;;;5.05;;
20832;SDS011;56075;51.264;7.150;2023-06-26T04:14:34;10.90;;;5.35;;
20832;SDS011;56075;51.264;7.150;2023-06-26T04:17:05;9.73;;;5.40;;
20832;SDS011;56075;51.264;7.150;2023-06-26T04:19:36;8.50;;;5.53;;
20832;SDS011;56075;51.264;7.150;2023-06-26T04:22:08;11.23;;;5.93;;
20832;SDS011;56075;51.264;7.150;2023-06-26T04:24:39;9.70;;;5.78;;
20832;SDS011;56075;51.264;7.150;2023-06-26T04:27:10;9.75;;;5.80;;
20832;SDS011;56075;51.264;7.150;2023-06-26T04:29:41;8.18;;;5.63;;
20832;SDS011;56075;51.264;7.150;2023-06-26T04:32:12;10.65;;;5.72;;
20832;SDS011;56075;51.264;7.150;2023-06-26T04:34:43;13.85;;;6.22;;
20832;SDS011;56075;51.264;7.150;2023-06-26T04:37:14;11.93;;;6.28;;
20832;SDS011;56075;51.264;7.150;2023-06-26T04:39:49;9.23;;;5.97;;
20832;SDS011;56075;51.264;7.150;2023-06-26T04:42:20;10.95;;;5.70;;
20832;SDS011;56075;51.264;7.150;2023-06-26T04:44:52;9.73;;;5.85;;
20832;SDS011;56075;51.264;7.150;2023-06-26T04:47:23;9.18;;;5.93;;
20832;SDS011;56075;51.264;7.150;2023-06-26T04:49:54;15.15;;;6.10;;
20832;SDS011;56075;51.264;7.150;2023-06-26T04:52:25;10.48;;;5.85;;
20832;SDS011;56075;51.264;7.150;2023-06-26T04:54:57;13.88;;;6.03;;
20832;SDS011;56075;51.264;7.150;2023-06-26T04:57:28;9.63;;;6.43;;
20832;SDS011;56075;51.264;7.150;2023-06-26T04:59:59;12.25;;;6.05;;
20832;SDS011;56075;51.264;7.150;2023-06-26T05:02:31;11.82;;;6.30;;
20832;SDS011;56075;51.264;7.150;2023-06-26T05:05:02;11.77;;;6.30;;
20832;SDS011;56075;51.264;7.150;2023-06-26T05:07:33;12.95;;;6.50;;
20832;SDS011;56075;51.264;7.150;2023-06-26T05:10:05;14.50;;;6.15;;
20832;SDS011;56075;51.264;7.150;2023-06-26T05:12:37;10.32;;;5.65;;
20832;SDS011;56075;51.264;7.150;2023-06-26T05:15:08;15.57;;;5.85;;
20832;SDS011;56075;51.264;7.150;2023-06-26T05:17:39;12.77;;;5.78;;
20832;SDS011;56075;51.264;7.150;2023-06-26T05:20:10;12.85;;;5.72;;
20832;SDS011;56075;51.264;7.150;2023-06-26T05:22:42;9.57;;;5.50;;
20832;SDS011;56075;51.264;7.150;2023-06-26T05:25:13;9.88;;;5.32;;
20832;SDS011;56075;51.264;7.150;2023-06-26T05:27:46;10.43;;;5.20;;
20832;SDS011;56075;51.264;7.150;2023-06-26T05:30:18;13.80;;;6.28;;
20832;SDS011;56075;51.264;7.150;2023-06-26T05:32:49;13.32;;;5.75;;
20832;SDS011;56075;51.264;7.150;2023-06-26T05:35:22;10.88;;;5.47;;
20832;SDS011;56075;51.264;7.150;2023-06-26T05:37:53;10.35;;;5.50;;
20832;SDS011;56075;51.264;7.150;2023-06-26T05:40:26;8.98;;;5.45;;
20832;SDS011;56075;51.264;7.150;2023-06-26T05:42:57;9.88;;;5.55;;
20832;SDS011;56075;51.264;7.150;2023-06-26T05:45:28;8.65;;;5.05;;
20832;SDS011;56075;51.264;7.150;2023-06-26T05:47:59;10.48;;;5.35;;
20832;SDS011;56075;51.264;7.150;2023-06-26T05:50:31;10.95;;;4.97;;
20832;SDS011;56075;51.264;7.150;2023-06-26T05:53:02;7.13;;;4.80;;
20832;SDS011;56075;51.264;7.150;2023-06-26T05:55:33;8.85;;;4.72;;
20832;SDS011;56075;51.264;7.150;2023-06-26T05:58:05;9.48;;;4.30;;
20832;SDS011;56075;51.264;7.150;2023-06-26T06:00:36;7.07;;;4.40;;
20832;SDS011;56075;51.264;7.150;2023-06-26T06:03:09;8.75;;;4.20;;
20832;SDS011;56075;51.264;7.150;2023-06-26T06:05:41;11.82;;;4.22;;
20832;SDS011;56075;51.264;7.150;2023-06-26T06:08:12;9.75;;;4.47;;
20832;SDS011;56075;51.264;7.150;2023-06-26T06:10:44;13.30;;;4.65;;
20832;SDS011;56075;51.264;7.150;2023-06-26T06:13:15;8.75;;;4.32;;
20832;SDS011;56075;51.264;7.150;2023-06-26T06:15:46;13.93;;;4.20;;
20832;SDS011;56075;51.264;7.150;2023-06-26T06:18:17;11.95;;;4.40;;
20832;SDS011;56075;51.264;7.150;2023-06-26T06:20:48;12.98;;;4.40;;
20832;SDS011;56075;51.264;7.150;2023-06-26T06:23:19;11.10;;;5.03;;
20832;SDS011;56075;51.264;7.150;2023-06-26T06:25:50;9.82;;;4.22;;
20832;SDS011;56075;51.264;7.150;2023-06-26T06:28:22;8.50;;;4.40;;
20832;SDS011;56075;51.264;7.150;2023-06-26T06:30:53;11.25;;;4.72;;
20832;SDS011;56075;51.264;7.150;2023-06-26T06:33:24;10.43;;;4.45;;
20832;SDS011;56075;51.264;7.150;2023-06-26T06:35:55;10.95;;;4.40;;
20832;SDS011;56075;51.264;7.150;2023-06-26T06:38:26;8.50;;;3.92;;
20832;SDS011;56075;51.264;7.150;2023-06-26T06:40:57;9.90;;;4.30;;
20832;SDS011;56075;51.264;7.150;2023-06-26T06:43:28;10.43;;;4.60;;
20832;SDS011;56075;51.264;7.150;2023-06-26T06:45:59;8.70;;;4.47;;
20832;SDS011;56075;51.264;7.150;2023-06-26T06:48:31;8.20;;;4.57;;
20832;SDS011;56075;51.264;7.150;2023-06-26T06:51:02;8.80;;;3.88;;
20832;SDS011;56075;51.264;7.150;2023-06-26T06:53:34;10.45;;;4.22;;
20832;SDS011;56075;51.264;7.150;2023-06-26T06:56:05;11.80;;;4.10;;
20832;SDS011;56075;51.264;7.150;2023-06-26T06:58:37;12.00;;;3.85;;
20832;SDS011;56075;51.264;7.150;2023-06-26T07:01:11;7.32;;;3.88;;
20832;SDS011;56075;51.264;7.150;2023-06-26T07:03:43;14.82;;;4.78;;
20832;SDS011;56075;51.264;7.150;2023-06-26T07:06:15;12.00;;;4.55;;
20832;SDS011;56075;51.264;7.150;2023-06-26T07:08:46;14.23;;;4.28;;
20832;SDS011;56075;51.264;7.150;2023-06-26T07:11:17;10.88;;;4.22;;
20832;SDS011;56075;51.264;7.150;2023-06-26T07:13:48;10.70;;;4.13;;
20832;SDS011;56075;51.264;7.150;2023-06-26T07:16:19;9.25;;;4.97;;
20832;SDS011;56075;51.264;7.150;2023-06-26T07:18:50;11.20;;;5.40;;
20832;SDS011;56075;51.264;7.150;2023-06-26T07:21:22;10.48;;;4.50;;
20832;SDS011;56075;51.264;7.150;2023-06-26T07:23:53;10.13;;;4.65;;
20832;SDS011;56075;51.264;7.150;2023-06-26T07:26:24;13.20;;;4.88;;
20832;SDS011;56075;51.264;7.150;2023-06-26T07:28:55;9.50;;;4.85;;
20832;SDS011;56075;51.264;7.150;2023-06-26T07:31:27;9.30;;;4.70;;
20832;SDS011;56075;51.264;7.150;2023-06-26T07:33:58;8.68;;;4.70;;
20832;SDS011;56075;51.264;7.150;2023-06-26T07:36:29;11.73;;;4.90;;
20832;SDS011;56075;51.264;7.150;2023-06-26T07:39:00;10.80;;;4.88;;
20832;SDS011;56075;51.264;7.150;2023-06-26T07:41:31;13.95;;;5.07;;
20832;SDS011;56075;51.264;7.150;2023-06-26T07:44:03;11.68;;;4.47;;
20832;SDS011;56075;51.264;7.150;2023-06-26T07:46:34;14.65;;;5.68;;
20832;SDS011;56075;51.264;7.150;2023-06-26T07:49:05;12.40;;;5.15;;
20832;SDS011;56075;51.264;7.150;2023-06-26T07:51:37;14.20;;;5.70;;
20832;SDS011;56075;51.264;7.150;2023-06-26T07:54:08;12.82;;;5.43;;
20832;SDS011;56075;51.264;7.150;2023-06-26T07:56:55;12.50;;;4.80;;
20832;SDS011;56075;51.264;7.150;2023-06-26T07:59:27;11.75;;;5.50;;
20832;SDS011;56075;51.264;7.150;2023-06-26T08:01:59;16.00;;;5.03;;
20832;SDS011;56075;51.264;7.150;2023-06-26T08:04:32;13.27;;;5.28;;
20832;SDS011;56075;51.264;7.150;2023-06-26T08:07:04;10.20;;;5.47;;
20832;SDS011;56075;51.264;7.150;2023-06-26T08:09:36;10.18;;;5.30;;
20832;SDS011;56075;51.264;7.150;2023-06-26T08:12:07;12.38;;;5.32;;
20832;SDS011;56075;51.264;7.150;2023-06-26T08:14:38;13.55;;;4.75;;
20832;SDS011;56075;51.264;7.150;2023-06-26T08:17:10;14.65;;;4.97;;
20832;SDS011;56075;51.264;7.150;2023-06-26T08:19:41;13.98;;;5.45;;
20832;SDS011;56075;51.264;7.150;2023-06-26T08:22:12;12.45;;;4.88;;
20832;SDS011;56075;51.264;7.150;2023-06-26T08:24:43;13.73;;;5.18;;
20832;SDS011;56075;51.264;7.150;2023-06-26T08:27:14;15.75;;;5.47;;
20832;SDS011;56075;51.264;7.150;2023-06-26T08:29:46;14.57;;;5.47;;
20832;SDS011;56075;51.264;7.150;2023-06-26T08:32:17;11.45;;;4.97;;
20832;SDS011;56075;51.264;7.150;2023-06-26T08:34:48;12.73;;;4.70;;
20832;SDS011;56075;51.264;7.150;2023-06-26T08:37:21;11.25;;;5.00;;
20832;SDS011;56075;51.264;7.150;2023-06-26T08:39:52;12.60;;;5.70;;
20832;SDS011;56075;51.264;7.150;2023-06-26T08:42:23;17.80;;;4.95;;
20832;SDS011;56075;51.264;7.150;2023-06-26T08:44:54;12.88;;;5.25;;
20832;SDS011;56075;51.264;7.150;2023-06-26T08:47:26;14.20;;;5.97;;
20832;SDS011;56075;51.264;7.150;2023-06-26T08:50:07;11.95;;;5.40;;
20832;SDS011;56075;51.264;7.150;2023-06-26T08:52:43;14.00;;;5.82;;
20832;SDS011;56075;51.264;7.150;2023-06-26T08:55:20;13.07;;;5.80;;
20832;SDS011;56075;51.264;7.150;2023-06-26T08:57:55;12.35;;;5.82;;
20832;SDS011;56075;51.264;7.150;2023-06-26T09:00:26;16.98;;;5.93;;
20832;SDS011;56075;51.264;7.150;2023-06-26T09:02:58;12.35;;;5.57;;
20832;SDS011;56075;51.264;7.150;2023-06-26T09:05:30;11.40;;;5.63;;
20832;SDS011;56075;51.264;7.150;2023-06-26T09:08:04;13.93;;;6.00;;
20832;SDS011;56075;51.264;7.150;2023-06-26T09:10:35;11.63;;;5.25;;
20832;SDS011;56075;51.264;7.150;2023-06-26T09:13:08;10.23;;;5.75;;
20832;SDS011;56075;51.264;7.150;2023-06-26T09:15:43;19.00;;;5.95;;
20832;SDS011;56075;51.264;7.150;2023-06-26T09:18:16;12.20;;;6.40;;
20832;SDS011;56075;51.264;7.150;2023-06-26T09:20:49;14.15;;;5.82;;
20832;SDS011;56075;51.264;7.150;2023-06-26T09:23:21;10.55;;;4.85;;
20832;SDS011;56075;51.264;7.150;2023-06-26T09:25:52;11.75;;;5.78;;
20832;SDS011;56075;51.264;7.150;2023-06-26T09:28:24;14.88;;;5.28;;
20832;SDS011;56075;51.264;7.150;2023-06-26T09:30:59;14.82;;;6.00;;
20832;SDS011;56075;51.264;7.150;2023-06-26T09:33:33;15.32;;;6.22;;
20832;SDS011;56075;51.264;7.150;2023-06-26T09:36:18;13.82;;;5.75;;
20832;SDS011;56075;51.264;7.150;2023-06-26T09:38:50;15.60;;;5.90;;
20832;SDS011;56075;51.264;7.150;2023-06-26T09:41:21;10.68;;;5.18;;
20832;SDS011;56075;51.264;7.150;2023-06-26T09:43:52;14.70;;;5.85;;
20832;SDS011;56075;51.264;7.150;2023-06-26T09:49:02;9.60;;;4.70;;
20832;SDS011;56075;51.264;7.150;2023-06-26T09:51:38;10.23;;;4.30;;
20832;SDS011;56075;51.264;7.150;2023-06-26T09:54:10;13.52;;;4.55;;
20832;SDS011;56075;51.264;7.150;2023-06-26T09:56:41;14.55;;;4.45;;
20832;SDS011;56075;51.264;7.150;2023-06-26T09:59:12;9.10;;;3.85;;
20832;SDS011;56075;51.264;7.150;2023-06-26T10:01:45;8.18;;;3.80;;
20832;SDS011;56075;51.264;7.150;2023-06-26T10:04:17;13.65;;;3.67;;
20832;SDS011;56075;51.264;7.150;2023-06-26T10:06:49;9.15;;;3.63;;
20832;SDS011;56075;51.264;7.150;2023-06-26T10:09:22;8.98;;;3.53;;
20832;SDS011;56075;51.264;7.150;2023-06-26T10:11:57;8.60;;;3.50;;
20832;SDS011;56075;51.264;7.150;2023-06-26T10:14:37;12.50;;;3.33;;
20832;SDS011;56075;51.264;7.150;2023-06-26T10:17:10;9.10;;;3.47;;
20832;SDS011;56075;51.264;7.150;2023-06-26T10:19:45;6.63;;;3.10;;
20832;SDS011;56075;51.264;7.150;2023-06-26T10:22:16;8.52;;;3.20;;
20832;SDS011;56075;51.264;7.150;2023-06-26T10:24:48;12.40;;;3.60;;
20832;SDS011;56075;51.264;7.150;2023-06-26T10:27:21;8.05;;;3.33;;
20832;SDS011;56075;51.264;7.150;2023-06-26T10:29:55;11.35;;;3.10;;
20832;SDS011;56075;51.264;7.150;2023-06-26T10:32:28;12.55;;;3.42;;
20832;SDS011;56075;51.264;7.150;2023-06-26T10:35:00;7.82;;;3.00;;
20832;SDS011;56075;51.264;7.150;2023-06-26T10:37:49;8.00;;;2.95;;
20832;SDS011;56075;51.264;7.150;2023-06-26T10:40:27;8.63;;;3.13;;
20832;SDS011;56075;51.264;7.150;2023-06-26T10:43:10;9.32;;;2.83;;
20832;SDS011;56075;51.264;7.150;2023-06-26T10:45:52;7.00;;;2.90;;
20832;SDS011;56075;51.264;7.150;2023-06-26T10:48:28;10.20;;;2.92;;
20832;SDS011;56075;51.264;7.150;2023-06-26T10:51:12;7.05;;;2.58;;
20832;SDS011;56075;51.264;7.150;2023-06-26T10:53:44;6.13;;;3.00;;
20832;SDS011;56075;51.264;7.150;2023-06-26T10:59:16;6.45;;;2.80;;
20832;SDS011;56075;51.264;7.150;2023-06-26T11:01:58;4.20;;;2.20;;
20832;SDS011;56075;51.264;7.150;2023-06-26T11:07:24;8.13;;;2.70;;
20832;SDS011;56075;51.264;7.150;2023-06-26T11:10:07;8.70;;;2.83;;
20832;SDS011;56075;51.264;7.150;2023-06-26T11:12:43;5.25;;;2.38;;
20832;SDS011;56075;51.264;7.150;2023-06-26T11:15:15;6.93;;;2.20;;
20832;SDS011;56075;51.264;7.150;2023-06-26T11:17:49;4.88;;;2.17;;
20832;SDS011;56075;51.264;7.150;2023-06-26T11:20:21;4.70;;;1.90;;
20832;SDS011;56075;51.264;7.150;2023-06-26T11:22:52;7.03;;;2.10;;
20832;SDS011;56075;51.264;7.150;2023-06-26T11:25:24;7.03;;;2.00;;
20832;SDS011;56075;51.264;7.150;2023-06-26T11:27:56;5.40;;;2.05;;
20832;SDS011;56075;51.264;7.150;2023-06-26T11:30:27;5.55;;;2.10;;
20832;SDS011;56075;51.264;7.150;2023-06-26T11:33:05;7.95;;;2.15;;
20832;SDS011;56075;51.264;7.150;2023-06-26T11:35:37;3.95;;;2.03;;
20832;SDS011;56075;51.264;7.150;2023-06-26T11:38:09;6.10;;;2.10;;
20832;SDS011;56075;51.264;7.150;2023-06-26T11:40:40;6.32;;;1.92;;
20832;SDS011;56075;51.264;7.150;2023-06-26T11:43:11;7.25;;;1.92;;
20832;SDS011;56075;51.264;7.150;2023-06-26T11:45:44;7.32;;;1.90;;
20832;SDS011;56075;51.264;7.150;2023-06-26T11:48:15;6.85;;;2.10;;
20832;SDS011;56075;51.264;7.150;2023-06-26T11:50:49;5.60;;;1.70;;
20832;SDS011;56075;51.264;7.150;2023-06-26T11:53:22;7.28;;;1.90;;
20832;SDS011;56075;51.264;7.150;2023-06-26T11:55:53;4.78;;;2.00;;
20832;SDS011;56075;51.264;7.150;2023-06-26T11:58:24;4.43;;;1.83;;
20832;SDS011;56075;51.264;7.150;2023-06-26T12:00:55;4.28;;;1.55;;
20832;SDS011;56075;51.264;7.150;2023-06-26T12:03:26;4.35;;;1.38;;
20832;SDS011;56075;51.264;7.150;2023-06-26T12:05:57;3.00;;;1.40;;
20832;SDS011;56075;51.264;7.150;2023-06-26T12:08:29;3.63;;;1.50;;
20832;SDS011;56075;51.264;7.150;2023-06-26T12:11:00;5.93;;;1.50;;
20832;SDS011;56075;51.264;7.150;2023-06-26T12:13:31;2.72;;;1.30;;
20832;SDS011;56075;51.264;7.150;2023-06-26T12:16:03;2.92;;;1.30;;
20832;SDS011;56075;51.264;7.150;2023-06-26T12:18:35;3.05;;;1.23;;
20832;SDS011;56075;51.264;7.150;2023-06-26T12:21:06;6.22;;;1.40;;
20832;SDS011;56075;51.264;7.150;2023-06-26T12:23:40;2.28;;;1.33;;
20832;SDS011;56075;51.264;7.150;2023-06-26T12:26:21;3.78;;;1.50;;
20832;SDS011;56075;51.264;7.150;2023-06-26T12:28:52;4.28;;;1.60;;
20832;SDS011;56075;51.264;7.150;2023-06-26T12:31:23;5.03;;;1.30;;
20832;SDS011;56075;51.264;7.150;2023-06-26T12:33:55;5.03;;;1.40;;
20832;SDS011;56075;51.264;7.150;2023-06-26T12:36:26;3.10;;;1.40;;
20832;SDS011;56075;51.264;7.150;2023-06-26T12:39:00;6.80;;;1.38;;
20832;SDS011;56075;51.264;7.150;2023-06-26T12:41:31;2.90;;;1.25;;
20832;SDS011;56075;51.264;7.150;2023-06-26T12:44:02;3.25;;;1.30;;
20832;SDS011;56075;51.264;7.150;2023-06-26T12:46:34;5.93;;;1.30;;
20832;SDS011;56075;51.264;7.150;2023-06-26T12:49:08;4.28;;;1.67;;
20832;SDS011;56075;51.264;7.150;2023-06-26T12:51:42;3.55;;;1.30;;
20832;SDS011;56075;51.264;7.150;2023-06-26T12:54:13;2.05;;;1.05;;
20832;SDS011;56075;51.264;7.150;2023-06-26T12:56:45;2.22;;;1.00;;
20832;SDS011;56075;51.264;7.150;2023-06-26T12:59:16;5.38;;;1.20;;
20832;SDS011;56075;51.264;7.150;2023-06-26T13:01:47;4.65;;;1.10;;
20832;SDS011;56075;51.264;7.150;2023-06-26T13:04:18;4.18;;;1.17;;
20832;SDS011;56075;51.264;7.150;2023-06-26T13:06:50;2.05;;;1.13;;
20832;SDS011;56075;51.264;7.150;2023-06-26T13:09:22;5.22;;;1.20;;
20832;SDS011;56075;51.264;7.150;2023-06-26T13:11:54;3.88;;;1.00;;
20832;SDS011;56075;51.264;7.150;2023-06-26T13:14:25;4.97;;;1.10;;
20832;SDS011;56075;51.264;7.150;2023-06-26T13:16:57;2.58;;;0.90;;
20832;SDS011;56075;51.264;7.150;2023-06-26T13:19:28;2.42;;;1.02;;
20832;SDS011;56075;51.264;7.150;2023-06-26T13:21:59;4.90;;;1.10;;
20832;SDS011;56075;51.264;7.150;2023-06-26T13:24:30;3.58;;;0.90;;
20832;SDS011;56075;51.264;7.150;2023-06-26T13:27:01;2.13;;;1.05;;
20832;SDS011;56075;51.264;7.150;2023-06-26T13:29:33;3.83;;;1.10;;
20832;SDS011;56075;51.264;7.150;2023-06-26T13:32:04;4.68;;;0.77;;
20832;SDS011;56075;51.264;7.150;2023-06-26T13:34:35;3.95;;;0.90;;
20832;SDS011;56075;51.264;7.150;2023-06-26T13:37:06;3.42;;;1.33;;
20832;SDS011;56075;51.264;7.150;2023-06-26T13:39:37;3.55;;;1.00;;
20832;SDS011;56075;51.264;7.150;2023-06-26T13:42:09;2.35;;;1.00;;
20832;SDS011;56075;51.264;7.150;2023-06-26T13:44:40;2.00;;;1.00;;
20832;SDS011;56075;51.264;7.150;2023-06-26T13:47:12;4.10;;;0.95;;
20832;SDS011;56075;51.264;7.150;2023-06-26T13:49:43;4.53;;;1.00;;
20832;SDS011;56075;51.264;7.150;2023-06-26T13:52:14;1.73;;;0.80;;
20832;SDS011;56075;51.264;7.150;2023-06-26T13:54:45;4.00;;;1.00;;
20832;SDS011;56075;51.264;7.150;2023-06-26T13:57:17;3.47;;;1.15;;
20832;SDS011;56075;51.264;7.150;2023-06-26T13:59:52;2.60;;;1.00;;
20832;SDS011;56075;51.264;7.150;2023-06-26T14:02:23;2.67;;;0.90;;
20832;SDS011;56075;51.264;7.150;2023-06-26T14:04:54;2.60;;;1.20;;
20832;SDS011;56075;51.264;7.150;2023-06-26T14:07:26;4.70;;;0.98;;
20832;SDS011;56075;51.264;7.150;2023-06-26T14:09:57;1.80;;;0.93;;
20832;SDS011;56075;51.264;7.150;2023-06-26T14:12:28;4.88;;;1.10;;
20832;SDS011;56075;51.264;7.150;2023-06-26T14:14:59;4.15;;;0.95;;
20832;SDS011;56075;51.264;7.150;2023-06-26T14:17:30;4.13;;;1.08;;
20832;SDS011;56075;51.264;7.150;2023-06-26T14:20:02;4.35;;;0.90;;
20832;SDS011;56075;51.264;7.150;2023-06-26T14:22:36;3.85;;;1.00;;
20832;SDS011;56075;51.264;7.150;2023-06-26T14:25:08;3.00;;;1.30;;
20832;SDS011;56075;51.264;7.150;2023-06-26T14:27:40;4.95;;;1.00;;
20832;SDS011;56075;51.264;7.150;2023-06-26T14:30:11;2.75;;;1.00;;
20832;SDS011;56075;51.264;7.150;2023-06-26T14:32:42;10.23;;;1.02;;
20832;SDS011;56075;51.264;7.150;2023-06-26T14:35:14;4.75;;;1.15;;
20832;SDS011;56075;51.264;7.150;2023-06-26T14:37:45;7.30;;;1.10;;
20832;SDS011;56075;51.264;7.150;2023-06-26T14:40:16;3.17;;;0.90;;
20832;SDS011;56075;51.264;7.150;2023-06-26T14:42:47;7.28;;;1.20;;
20832;SDS011;56075;51.264;7.150;2023-06-26T14:45:18;3.25;;;1.00;;
20832;SDS011;56075;51.264;7.150;2023-06-26T14:47:50;2.85;;;1.30;;
20832;SDS011;56075;51.264;7.150;2023-06-26T14:50:21;2.78;;;1.10;;
20832;SDS011;56075;51.264;7.150;2023-06-26T14:52:52;1.80;;;0.95;;
20832;SDS011;56075;51.264;7.150;2023-06-26T14:55:23;3.17;;;1.10;;
20832;SDS011;56075;51.264;7.150;2023-06-26T14:57:54;5.55;;;1.02;;
20832;SDS011;56075;51.264;7.150;2023-06-26T15:00:26;3.45;;;1.00;;
20832;SDS011;56075;51.264;7.150;2023-06-26T15:02:57;4.57;;;1.13;;
20832;SDS011;56075;51.264;7.150;2023-06-26T15:05:29;4.57;;;1.00;;
20832;SDS011;56075;51.264;7.150;2023-06-26T15:08:00;3.85;;;1.15;;
20832;SDS011;56075;51.264;7.150;2023-06-26T15:10:31;2.78;;;1.20;;
20832;SDS011;56075;51.264;7.150;2023-06-26T15:13:02;3.75;;;1.20;;
20832;SDS011;56075;51.264;7.150;2023-06-26T15:15:33;2.83;;;0.90;;
20832;SDS011;56075;51.264;7.150;2023-06-26T15:18:05;5.60;;;0.93;;
20832;SDS011;56075;51.264;7.150;2023-06-26T15:20:36;4.32;;;1.10;;
20832;SDS011;56075;51.264;7.150;2023-06-26T15:23:08;1.63;;;1.00;;